METAR Data
IDs: Format: Raw Decoded Include TAF

Data at: 1325 UTC 07 Jul 2020

KMYR 071256Z 12003KT 10SM FEW010 26/24 A3005 RMK AO2 SLP173 T02560244
KMYR 071156Z 11004KT 10SM CLR 26/24 A3004 RMK AO2 SLP171 60009 70010 T02560239 10256 20244 51002
KMYR 071056Z 12006KT 10SM FEW001 24/23 A3004 RMK AO2 RAE24 SLP171 P0002 T02440233
KMYR 071036Z AUTO 13006KT 10SM FEW012 24/23 A3004 RMK AO2 RAE24 P0002
KMYR 071022Z AUTO 12005KT 10SM -RA SCT014 BKN021 25/24 A3004 RMK AO2 P0002
KMYR 071007Z AUTO 09006KT 8SM -RA BKN014 BKN023 BKN065 24/24 A3004 RMK AO2 P0002
KMYR 070956Z AUTO 15005KT 7SM -RA SCT016 BKN033 OVC070 24/24 A3004 RMK AO2 RAB08 SLP172 P0007 T02440239
KMYR 070856Z AUTO 06003KT 10SM FEW020 SCT034 25/23 A3003 RMK AO2 LTG DSNT E AND S SLP169 T02500233 56010
KMYR 070756Z AUTO 01003KT 10SM BKN031 BKN060 24/23 A3003 RMK AO2 LTG DSNT SE SLP170 T02440233
KMYR 070656Z AUTO 33004KT 10SM SCT033 24/23 A3005 RMK AO2 LTG DSNT S SLP176 T02440233
KMYR 070556Z AUTO 00000KT 10SM FEW120 25/23 A3006 RMK AO2 SLP179 60001 T02500228 10278 20250 58004
KMYR 070456Z AUTO 00000KT 10SM CLR 25/22 A3007 RMK AO2 SLP181 T02500222 403000250
KMYR 070356Z AUTO 20017G21KT 10SM FEW016 27/24 A3007 RMK AO2 SLP183 T02720244
KMYR 070256Z AUTO 19007KT 10SM SCT019 27/25 A3007 RMK AO2 SLP183 60001 T02720250 53005
KMYR 070156Z AUTO 18006KT 10SM CLR 27/24 A3006 RMK AO2 SLP178 T02670244
KMYR 070115Z AUTO 19007KT 10SM FEW021 SCT026 BKN040 27/24 A3006 RMK AO2
KMYR 070056Z AUTO 18009KT 10SM BKN021 BKN028 BKN038 27/24 A3006 RMK AO2 RAB05E30 SLP177 P0001 T02670244
KMYR 062356Z AUTO 15010KT 10SM SCT021 BKN026 28/24 A3006 RMK AO2 SLP178 T02780239 10294 20278 53000
KMYR 062317Z AUTO 16010KT 10SM BKN021 BKN026 28/24 A3006 RMK AO2
KMYR 062256Z AUTO 17009KT 10SM SCT025 28/24 A3005 RMK AO2 SLP176 T02780239
KMYR 062156Z 17007KT 10SM SCT021 28/24 A3005 RMK AO2 SLP176 T02780239
KMYR 062056Z 15010KT 10SM CLR 28/24 A3006 RMK AO2 SLP178 T02830239 58006
KMYR 061956Z 13010KT 10SM FEW023 29/24 A3007 RMK AO2 SLP180 T02890239
KMYR 061950Z 14009KT 10SM FEW021 SCT043 29/23 A3007 RMK AO2
KMYR 061932Z 14010KT 10SM BKN021 BKN029 BKN043 28/23 A3007 RMK AO2
KMYR 061856Z 11008KT 10SM FEW019 29/24 A3007 RMK AO2 SLP183 T02890244
KMYR 061756Z 17007KT 10SM FEW120 29/24 A3009 RMK AO2 SLP189 T02890244 10300 20272 58003
KMYR 061656Z 17009KT 10SM SCT014 28/25 A3010 RMK AO2 SLP191 T02830250
KMYR 061556Z 19008KT 10SM FEW014 SCT019 BKN036 27/24 A3011 RMK AO2 SLP195 T02720244
KMYR 061517Z 15008KT 10SM FEW002 SCT028 28/24 A3010 RMK AO2 LTG DSNT W
KMYR 061456Z 16010KT 10SM BKN028 BKN100 28/23 A3010 RMK AO2 LTG DSNT W SLP193 T02830233 53017
KMYR 061356Z 13006KT 10SM SCT100 28/24 A3007 RMK AO2 LTG DSNT W SLP183 T02830239
KMYR 061321Z 16008KT 10SM FEW023 BKN100 28/24 A3007 RMK AO2 LTG DSNT SW
KMYR 061256Z 14009KT 10SM BKN023 28/24 A3007 RMK AO2 LTG DSNT SW SLP181 T02830239
KMYR 061238Z 13008KT 10SM BKN023 29/23 A3006 RMK AO2
KMYR 061156Z 13007KT 10SM CLR 28/23 A3005 RMK AO2 SLP175 T02830233 10283 20267 53016
KMYR 061138Z 14007KT 10SM FEW022 28/23 A3004 RMK AO2
KMYR 061115Z 13006KT 10SM BKN024 28/23 A3003 RMK AO2
KMYR 061056Z 13005KT 10SM FEW024 27/23 A3003 RMK AO2 SLP169 T02720233
KMYR 060956Z AUTO 16007KT 10SM CLR 27/22 A3002 RMK AO2 SLP165 T02670222
KMYR 060856Z AUTO 15007KT 10SM CLR 27/22 A3000 RMK AO2 SLP160 T02720217 55003
KMYR 060756Z AUTO 15008KT 10SM FEW027 27/22 A2999 RMK AO2 SLP156 T02720222
KMYR 060750Z AUTO 14009KT 10SM SCT027 27/22 A3000 RMK AO2
KMYR 060738Z AUTO 15008KT 10SM BKN027 27/22 A3000 RMK AO2
KMYR 060656Z AUTO 16010KT 10SM FEW027 27/22 A3001 RMK AO2 SLP163 T02720222
KMYR 060556Z AUTO 15008KT 10SM FEW026 27/23 A3003 RMK AO2 SLP170 T02720228 10283 20272 50004
KMYR 060529Z AUTO 17008KT 10SM SCT028 BKN033 27/23 A3004 RMK AO2
KMYR 060456Z AUTO 16007KT 10SM BKN028 BKN032 27/23 A3005 RMK AO2 SLP174 T02720228 403060233
KMYR 060434Z AUTO 17007KT 10SM BKN028 BKN033 27/23 A3004 RMK AO2
KMYR 060356Z AUTO 16009KT 10SM FEW028 27/23 A3003 RMK AO2 SLP170 T02720228
KMYR 060256Z AUTO 17008KT 10SM CLR 27/23 A3002 RMK AO2 SLP165 T02720228 53007
KMYR 060156Z AUTO 17009KT 10SM FEW028 28/23 A3001 RMK AO2 SLP162 T02780228